sensor_id;sensor_type;location;lat;lon;timestamp;pressure;altitude;pressure_sealevel;temperature;humidity
71559;BME280;59382;43.852;25.952;2022-08-18T00:02:12;100610.66;;;29.33;44.08
71559;BME280;59382;43.852;25.952;2022-08-18T00:04:39;100589.78;;;29.27;44.04
71559;BME280;59382;43.852;25.952;2022-08-18T00:07:20;100587.19;;;29.22;44.08
71559;BME280;59382;43.852;25.952;2022-08-18T00:09:46;100606.81;;;29.25;44.12
71559;BME280;59382;43.852;25.952;2022-08-18T00:12:33;100611.94;;;29.15;44.47
71559;BME280;59382;43.852;25.952;2022-08-18T00:14:59;100616.16;;;29.21;44.46
71559;BME280;59382;43.852;25.952;2022-08-18T00:17:31;100619.88;;;29.25;44.28
71559;BME280;59382;43.852;25.952;2022-08-18T00:19:57;100627.72;;;29.23;44.36
71559;BME280;59382;43.852;25.952;2022-08-18T00:22:23;100612.88;;;29.19;44.36
71559;BME280;59382;43.852;25.952;2022-08-18T00:24:51;100625.16;;;29.18;44.40
71559;BME280;59382;43.852;25.952;2022-08-18T00:27:26;100631.84;;;29.17;44.42
71559;BME280;59382;43.852;25.952;2022-08-18T00:29:53;100631.84;;;29.17;44.40
71559;BME280;59382;43.852;25.952;2022-08-18T00:32:23;100623.25;;;29.10;44.30
71559;BME280;59382;43.852;25.952;2022-08-18T00:34:50;100636.78;;;29.11;44.24
71559;BME280;59382;43.852;25.952;2022-08-18T00:37:16;100626.38;;;29.00;44.30
71559;BME280;59382;43.852;25.952;2022-08-18T00:39:42;100629.47;;;29.07;44.39
71559;BME280;59382;43.852;25.952;2022-08-18T00:42:22;100636.66;;;29.08;44.29
71559;BME280;59382;43.852;25.952;2022-08-18T00:44:48;100634.84;;;29.03;44.05
71559;BME280;59382;43.852;25.952;2022-08-18T00:47:14;100621.84;;;28.95;44.06
71559;BME280;59382;43.852;25.952;2022-08-18T00:49:41;100631.28;;;29.03;44.02
71559;BME280;59382;43.852;25.952;2022-08-18T00:52:11;100607.19;;;28.86;44.01
71559;BME280;59382;43.852;25.952;2022-08-18T00:54:37;100641.41;;;29.07;43.83
71559;BME280;59382;43.852;25.952;2022-08-18T00:57:07;100635.03;;;29.07;43.76
71559;BME280;59382;43.852;25.952;2022-08-18T01:02:17;100624.56;;;29.04;43.89
71559;BME280;59382;43.852;25.952;2022-08-18T01:04:48;100630.41;;;29.11;43.81
71559;BME280;59382;43.852;25.952;2022-08-18T01:07:19;100641.53;;;29.11;43.63
71559;BME280;59382;43.852;25.952;2022-08-18T01:09:50;100625.22;;;29.01;43.39
71559;BME280;59382;43.852;25.952;2022-08-18T01:12:17;100627.06;;;28.97;43.76
71559;BME280;59382;43.852;25.952;2022-08-18T01:14:44;100634.53;;;29.05;43.43
71559;BME280;59382;43.852;25.952;2022-08-18T01:17:11;100630.97;;;29.04;43.91
71559;BME280;59382;43.852;25.952;2022-08-18T01:19:55;100635.50;;;29.00;43.49
71559;BME280;59382;43.852;25.952;2022-08-18T01:25:15;100630.41;;;29.11;43.72
71559;BME280;59382;43.852;25.952;2022-08-18T01:27:59;100625.53;;;29.08;42.96
71559;BME280;59382;43.852;25.952;2022-08-18T01:30:28;100635.97;;;29.11;43.39
71559;BME280;59382;43.852;25.952;2022-08-18T01:32:55;100615.72;;;29.02;43.32
71559;BME280;59382;43.852;25.952;2022-08-18T01:35:22;100628.31;;;29.08;43.32
71559;BME280;59382;43.852;25.952;2022-08-18T01:37:51;100585.63;;;28.83;43.40
71559;BME280;59382;43.852;25.952;2022-08-18T01:40:18;100624.56;;;29.04;43.43
71559;BME280;59382;43.852;25.952;2022-08-18T01:42:43;100624.88;;;29.02;43.65
71559;BME280;59382;43.852;25.952;2022-08-18T01:45:15;100614.00;;;28.89;43.99
71559;BME280;59382;43.852;25.952;2022-08-18T01:47:41;100627.91;;;28.89;44.26
71559;BME280;59382;43.852;25.952;2022-08-18T01:50:07;100635.78;;;28.87;44.26
71559;BME280;59382;43.852;25.952;2022-08-18T01:52:35;100630.56;;;28.85;44.47
71559;BME280;59382;43.852;25.952;2022-08-18T01:55:01;100641.69;;;28.77;44.70
71559;BME280;59382;43.852;25.952;2022-08-18T01:57:27;100637.19;;;28.63;44.50
71559;BME280;59382;43.852;25.952;2022-08-18T01:59:53;100650.22;;;28.72;44.58
71559;BME280;59382;43.852;25.952;2022-08-18T02:02:23;100643.41;;;28.60;44.34
71559;BME280;59382;43.852;25.952;2022-08-18T02:04:52;100642.25;;;28.61;44.27
71559;BME280;59382;43.852;25.952;2022-08-18T02:07:19;100662.31;;;28.67;44.09
71559;BME280;59382;43.852;25.952;2022-08-18T02:09:45;100625.78;;;28.39;44.08
71559;BME280;59382;43.852;25.952;2022-08-18T02:12:11;100669.53;;;28.59;44.04
71559;BME280;59382;43.852;25.952;2022-08-18T02:14:37;100659.09;;;28.56;44.33
71559;BME280;59382;43.852;25.952;2022-08-18T02:17:04;100658.94;;;28.53;44.23
71559;BME280;59382;43.852;25.952;2022-08-18T02:19:37;100669.38;;;28.56;44.35
71559;BME280;59382;43.852;25.952;2022-08-18T02:22:05;100666.94;;;28.54;44.20
71559;BME280;59382;43.852;25.952;2022-08-18T02:24:31;100673.81;;;28.48;44.61
71559;BME280;59382;43.852;25.952;2022-08-18T02:27:00;100672.00;;;28.44;45.20
71559;BME280;59382;43.852;25.952;2022-08-18T02:29:26;100642.19;;;28.24;45.78
71559;BME280;59382;43.852;25.952;2022-08-18T02:31:52;100664.66;;;28.39;46.17
71559;BME280;59382;43.852;25.952;2022-08-18T02:34:18;100679.69;;;28.38;46.56
71559;BME280;59382;43.852;25.952;2022-08-18T02:36:44;100668.94;;;28.28;46.73
71559;BME280;59382;43.852;25.952;2022-08-18T02:39:09;100683.28;;;28.30;46.71
71559;BME280;59382;43.852;25.952;2022-08-18T02:41:35;100680.22;;;28.23;46.96
71559;BME280;59382;43.852;25.952;2022-08-18T02:44:01;100692.28;;;28.27;47.18
71559;BME280;59382;43.852;25.952;2022-08-18T02:46:27;100672.22;;;28.13;46.79
71559;BME280;59382;43.852;25.952;2022-08-18T02:48:53;100689.50;;;28.27;46.83
71559;BME280;59382;43.852;25.952;2022-08-18T02:51:19;100676.31;;;28.16;47.27
71559;BME280;59382;43.852;25.952;2022-08-18T02:53:46;100700.28;;;28.20;47.15
71559;BME280;59382;43.852;25.952;2022-08-18T02:56:14;100687.41;;;28.07;47.83
71559;BME280;59382;43.852;25.952;2022-08-18T02:58:54;100697.22;;;28.13;48.01
71559;BME280;59382;43.852;25.952;2022-08-18T03:01:21;100693.44;;;28.09;48.05
71559;BME280;59382;43.852;25.952;2022-08-18T03:03:48;100692.63;;;28.09;47.88
71559;BME280;59382;43.852;25.952;2022-08-18T03:06:15;100697.53;;;28.12;48.08
71559;BME280;59382;43.852;25.952;2022-08-18T03:08:41;100708.78;;;28.15;48.20
71559;BME280;59382;43.852;25.952;2022-08-18T03:11:07;100701.28;;;28.07;47.69
71559;BME280;59382;43.852;25.952;2022-08-18T03:13:32;100710.41;;;28.16;47.36
71559;BME280;59382;43.852;25.952;2022-08-18T03:15:58;100707.63;;;28.08;47.44
71559;BME280;59382;43.852;25.952;2022-08-18T03:18:24;100713.69;;;28.01;47.89
71559;BME280;59382;43.852;25.952;2022-08-18T03:20:49;100715.81;;;28.04;47.96
71559;BME280;59382;43.852;25.952;2022-08-18T03:23:15;100706.03;;;27.98;47.79
71559;BME280;59382;43.852;25.952;2022-08-18T03:25:48;100722.81;;;28.10;47.81
71559;BME280;59382;43.852;25.952;2022-08-18T03:28:14;100707.50;;;28.04;47.57
71559;BME280;59382;43.852;25.952;2022-08-18T03:30:41;100726.41;;;28.02;48.18
71559;BME280;59382;43.852;25.952;2022-08-18T03:33:08;100736.88;;;27.88;48.38
71559;BME280;59382;43.852;25.952;2022-08-18T03:35:35;100721.13;;;27.75;48.64
71559;BME280;59382;43.852;25.952;2022-08-18T03:38:01;100720.66;;;27.82;48.28
71559;BME280;59382;43.852;25.952;2022-08-18T03:40:27;100716.81;;;27.91;47.88
71559;BME280;59382;43.852;25.952;2022-08-18T03:42:52;100706.34;;;27.88;47.71
71559;BME280;59382;43.852;25.952;2022-08-18T03:45:18;100722.34;;;28.00;47.68
71559;BME280;59382;43.852;25.952;2022-08-18T03:47:44;100702.94;;;27.91;47.59
71559;BME280;59382;43.852;25.952;2022-08-18T03:50:10;100716.94;;;28.03;47.50
71559;BME280;59382;43.852;25.952;2022-08-18T03:52:37;100722.16;;;28.05;47.15
71559;BME280;59382;43.852;25.952;2022-08-18T03:55:04;100726.06;;;28.12;47.33
71559;BME280;59382;43.852;25.952;2022-08-18T03:57:30;100733.09;;;28.10;47.03
71559;BME280;59382;43.852;25.952;2022-08-18T03:59:57;100728.84;;;28.04;47.13
71559;BME280;59382;43.852;25.952;2022-08-18T04:02:22;100728.03;;;28.03;46.97
71559;BME280;59382;43.852;25.952;2022-08-18T04:04:48;100731.00;;;27.98;47.43
71559;BME280;59382;43.852;25.952;2022-08-18T04:07:14;100719.88;;;27.98;47.53
71559;BME280;59382;43.852;25.952;2022-08-18T04:09:41;100733.56;;;28.03;47.31
71559;BME280;59382;43.852;25.952;2022-08-18T04:12:10;100740.13;;;28.07;47.35
71559;BME280;59382;43.852;25.952;2022-08-18T04:14:41;100713.53;;;27.98;46.88
71559;BME280;59382;43.852;25.952;2022-08-18T04:17:08;100731.16;;;28.10;47.22
71559;BME280;59382;43.852;25.952;2022-08-18T04:19:35;100739.13;;;28.20;47.18
71559;BME280;59382;43.852;25.952;2022-08-18T04:22:01;100746.81;;;28.23;47.06
71559;BME280;59382;43.852;25.952;2022-08-18T04:24:29;100736.84;;;28.22;46.89
71559;BME280;59382;43.852;25.952;2022-08-18T04:26:56;100730.81;;;28.20;46.67
71559;BME280;59382;43.852;25.952;2022-08-18T04:29:23;100744.34;;;28.30;46.77
71559;BME280;59382;43.852;25.952;2022-08-18T04:31:50;100741.75;;;28.25;46.71
71559;BME280;59382;43.852;25.952;2022-08-18T04:34:17;100757.09;;;28.31;46.70
71559;BME280;59382;43.852;25.952;2022-08-18T04:36:46;100750.53;;;28.27;46.82
71559;BME280;59382;43.852;25.952;2022-08-18T04:39:12;100710.25;;;28.04;46.58
71559;BME280;59382;43.852;25.952;2022-08-18T04:41:40;100747.78;;;28.27;46.63
71559;BME280;59382;43.852;25.952;2022-08-18T04:44:08;100760.69;;;28.23;46.93
71559;BME280;59382;43.852;25.952;2022-08-18T04:46:45;100763.28;;;28.11;46.93
71559;BME280;59382;43.852;25.952;2022-08-18T04:49:16;100767.38;;;28.05;47.11
71559;BME280;59382;43.852;25.952;2022-08-18T04:51:45;100750.88;;;28.00;46.83
71559;BME280;59382;43.852;25.952;2022-08-18T04:54:32;100759.38;;;27.95;47.17
71559;BME280;59382;43.852;25.952;2022-08-18T04:57:05;100772.41;;;28.03;47.07
71559;BME280;59382;43.852;25.952;2022-08-18T04:59:32;100755.94;;;27.98;46.83
71559;BME280;59382;43.852;25.952;2022-08-18T05:01:59;100767.22;;;28.10;46.88
71559;BME280;59382;43.852;25.952;2022-08-18T05:04:25;100762.63;;;28.14;46.96
71559;BME280;59382;43.852;25.952;2022-08-18T05:06:53;100761.00;;;28.13;46.82
71559;BME280;59382;43.852;25.952;2022-08-18T05:09:19;100758.56;;;28.20;46.68
71559;BME280;59382;43.852;25.952;2022-08-18T05:11:44;100750.06;;;28.25;46.79
71559;BME280;59382;43.852;25.952;2022-08-18T05:14:10;100757.56;;;28.33;46.30
71559;BME280;59382;43.852;25.952;2022-08-18T05:16:37;100747.25;;;28.42;46.29
71559;BME280;59382;43.852;25.952;2022-08-18T05:19:08;100756.94;;;28.53;46.17
71559;BME280;59382;43.852;25.952;2022-08-18T05:21:36;100748.59;;;28.53;46.24
71559;BME280;59382;43.852;25.952;2022-08-18T05:24:04;100761.63;;;28.70;45.82
71559;BME280;59382;43.852;25.952;2022-08-18T05:26:30;100763.88;;;28.77;46.07
71559;BME280;59382;43.852;25.952;2022-08-18T05:28:56;100752.13;;;28.80;46.10
71559;BME280;59382;43.852;25.952;2022-08-18T05:31:24;100744.28;;;28.82;46.27
71559;BME280;59382;43.852;25.952;2022-08-18T05:33:51;100760.06;;;28.98;46.04
71559;BME280;59382;43.852;25.952;2022-08-18T05:41:28;100759.66;;;29.54;45.19
71559;BME280;59382;43.852;25.952;2022-08-18T05:43:58;100764.81;;;29.73;44.79
71559;BME280;59382;43.852;25.952;2022-08-18T05:46:33;100750.66;;;29.86;44.45
71559;BME280;59382;43.852;25.952;2022-08-18T05:49:02;100773.00;;;30.19;44.21
71559;BME280;59382;43.852;25.952;2022-08-18T05:51:35;100769.84;;;30.41;43.85
71559;BME280;59382;43.852;25.952;2022-08-18T05:54:04;100776.66;;;30.64;43.31
71559;BME280;59382;43.852;25.952;2022-08-18T05:56:50;100765.38;;;30.81;43.09
71559;BME280;59382;43.852;25.952;2022-08-18T05:59:31;100776.13;;;31.15;42.72
71559;BME280;59382;43.852;25.952;2022-08-18T06:05:09;100780.06;;;31.74;41.83
71559;BME280;59382;43.852;25.952;2022-08-18T06:07:53;100777.94;;;32.07;40.66
71559;BME280;59382;43.852;25.952;2022-08-18T06:10:20;100767.66;;;32.36;39.98
71559;BME280;59382;43.852;25.952;2022-08-18T06:12:48;100782.25;;;32.72;39.28
71559;BME280;59382;43.852;25.952;2022-08-18T06:15:36;100777.38;;;32.97;39.05
71559;BME280;59382;43.852;25.952;2022-08-18T06:18:15;100777.19;;;33.21;38.14
71559;BME280;59382;43.852;25.952;2022-08-18T06:21:24;100785.88;;;33.47;37.92
71559;BME280;59382;43.852;25.952;2022-08-18T06:26:38;100796.50;;;33.88;36.89
71559;BME280;59382;43.852;25.952;2022-08-18T06:32:23;100789.00;;;34.11;36.51
71559;BME280;59382;43.852;25.952;2022-08-18T06:35:21;100799.47;;;34.33;36.42
71559;BME280;59382;43.852;25.952;2022-08-18T06:41:21;100808.06;;;34.59;35.52
71559;BME280;59382;43.852;25.952;2022-08-18T06:52:33;100810.38;;;34.76;35.03
71559;BME280;59382;43.852;25.952;2022-08-18T06:55:14;100812.44;;;34.79;35.10
71559;BME280;59382;43.852;25.952;2022-08-18T06:57:55;100800.88;;;34.81;35.07
71559;BME280;59382;43.852;25.952;2022-08-18T07:00:25;100805.22;;;34.78;34.96
71559;BME280;59382;43.852;25.952;2022-08-18T07:05:25;100803.31;;;34.82;35.20
71559;BME280;59382;43.852;25.952;2022-08-18T07:08:17;100800.66;;;34.70;35.15
71559;BME280;59382;43.852;25.952;2022-08-18T07:10:49;100795.22;;;34.58;35.11
71559;BME280;59382;43.852;25.952;2022-08-18T07:15:44;100776.47;;;34.24;35.30
71559;BME280;59382;43.852;25.952;2022-08-18T07:18:13;100782.28;;;34.35;35.14
71559;BME280;59382;43.852;25.952;2022-08-18T07:20:50;100792.97;;;34.45;35.27
71559;BME280;59382;43.852;25.952;2022-08-18T07:23:27;100796.19;;;34.47;35.08
71559;BME280;59382;43.852;25.952;2022-08-18T07:26:09;100779.75;;;34.45;35.17
71559;BME280;59382;43.852;25.952;2022-08-18T07:28:40;100795.66;;;34.60;34.97
71559;BME280;59382;43.852;25.952;2022-08-18T07:33:36;100798.09;;;34.62;35.08
71559;BME280;59382;43.852;25.952;2022-08-18T07:36:05;100803.34;;;34.63;34.79
71559;BME280;59382;43.852;25.952;2022-08-18T07:38:41;100804.66;;;34.69;34.66
71559;BME280;59382;43.852;25.952;2022-08-18T07:41:37;100806.44;;;34.77;34.61
71559;BME280;59382;43.852;25.952;2022-08-18T07:44:16;100798.00;;;34.77;34.69
71559;BME280;59382;43.852;25.952;2022-08-18T07:46:59;100800.22;;;34.87;34.70
71559;BME280;59382;43.852;25.952;2022-08-18T07:49:33;100789.72;;;34.84;34.80
71559;BME280;59382;43.852;25.952;2022-08-18T07:54:59;100796.06;;;35.00;34.05
71559;BME280;59382;43.852;25.952;2022-08-18T08:05:52;100781.34;;;34.65;34.55
71559;BME280;59382;43.852;25.952;2022-08-18T08:08:41;100802.31;;;34.71;34.18
71559;BME280;59382;43.852;25.952;2022-08-18T08:11:35;100795.00;;;34.67;34.35
71559;BME280;59382;43.852;25.952;2022-08-18T08:17:06;100789.44;;;34.32;35.22
71559;BME280;59382;43.852;25.952;2022-08-18T08:22:17;100790.88;;;33.88;35.84
71559;BME280;59382;43.852;25.952;2022-08-18T08:30:34;100792.16;;;33.13;36.98
71559;BME280;59382;43.852;25.952;2022-08-18T08:35:37;100779.31;;;32.81;38.00
71559;BME280;59382;43.852;25.952;2022-08-18T08:38:16;100779.81;;;32.71;37.66
71559;BME280;59382;43.852;25.952;2022-08-18T08:41:00;100779.81;;;32.71;38.33
71559;BME280;59382;43.852;25.952;2022-08-18T08:43:35;100784.31;;;32.60;38.23
71559;BME280;59382;43.852;25.952;2022-08-18T08:46:06;100791.06;;;32.59;37.87
71559;BME280;59382;43.852;25.952;2022-08-18T08:48:49;100777.88;;;32.44;38.40
71559;BME280;59382;43.852;25.952;2022-08-18T08:51:37;100756.84;;;32.22;38.71
71559;BME280;59382;43.852;25.952;2022-08-18T08:54:10;100782.53;;;32.28;38.30
71559;BME280;59382;43.852;25.952;2022-08-18T08:56:44;100788.81;;;32.24;38.74
71559;BME280;59382;43.852;25.952;2022-08-18T08:59:12;100785.47;;;32.19;38.70
71559;BME280;59382;43.852;25.952;2022-08-18T09:01:56;100793.50;;;32.20;38.71
71559;BME280;59382;43.852;25.952;2022-08-18T09:04:42;100789.16;;;32.35;39.07
71559;BME280;59382;43.852;25.952;2022-08-18T09:07:18;100789.41;;;32.58;38.49
71559;BME280;59382;43.852;25.952;2022-08-18T09:15:24;100795.41;;;33.15;37.78
71559;BME280;59382;43.852;25.952;2022-08-18T09:23:27;100768.34;;;33.50;36.68
71559;BME280;59382;43.852;25.952;2022-08-18T09:25:58;100757.50;;;33.64;36.75
71559;BME280;59382;43.852;25.952;2022-08-18T09:28:59;100772.69;;;33.97;36.11
71559;BME280;59382;43.852;25.952;2022-08-18T09:31:37;100769.09;;;34.16;35.43
71559;BME280;59382;43.852;25.952;2022-08-18T09:36:52;100766.22;;;34.32;34.50
71559;BME280;59382;43.852;25.952;2022-08-18T09:39:38;100759.88;;;34.35;34.24
71559;BME280;59382;43.852;25.952;2022-08-18T09:42:39;100761.97;;;34.38;33.37
71559;BME280;59382;43.852;25.952;2022-08-18T09:52:59;100748.50;;;34.43;33.19
71559;BME280;59382;43.852;25.952;2022-08-18T09:55:50;100733.56;;;34.58;33.30
71559;BME280;59382;43.852;25.952;2022-08-18T09:58:52;100736.63;;;34.72;33.29
71559;BME280;59382;43.852;25.952;2022-08-18T10:01:37;100722.63;;;34.72;33.04
71559;BME280;59382;43.852;25.952;2022-08-18T10:06:39;100729.41;;;34.71;33.35
71559;BME280;59382;43.852;25.952;2022-08-18T10:17:10;100712.44;;;34.42;32.85
71559;BME280;59382;43.852;25.952;2022-08-18T10:22:36;100719.53;;;34.58;33.17
71559;BME280;59382;43.852;25.952;2022-08-18T10:25:04;100714.84;;;34.62;33.00
71559;BME280;59382;43.852;25.952;2022-08-18T10:33:08;100704.94;;;34.68;32.81
71559;BME280;59382;43.852;25.952;2022-08-18T10:38:14;100690.91;;;34.68;32.54
71559;BME280;59382;43.852;25.952;2022-08-18T10:40:42;100693.53;;;34.80;32.41
71559;BME280;59382;43.852;25.952;2022-08-18T10:45:44;100685.50;;;35.01;32.39
71559;BME280;59382;43.852;25.952;2022-08-18T10:48:28;100660.97;;;34.95;32.29
71559;BME280;59382;43.852;25.952;2022-08-18T10:51:19;100669.09;;;35.03;32.04
71559;BME280;59382;43.852;25.952;2022-08-18T10:53:50;100676.41;;;35.08;32.47
71559;BME280;59382;43.852;25.952;2022-08-18T11:07:09;100660.97;;;34.95;31.69
71559;BME280;59382;43.852;25.952;2022-08-18T11:09:37;100666.94;;;34.93;31.94
71559;BME280;59382;43.852;25.952;2022-08-18T11:12:04;100647.03;;;34.79;32.14
71559;BME280;59382;43.852;25.952;2022-08-18T11:19:46;100645.19;;;34.64;32.37
71559;BME280;59382;43.852;25.952;2022-08-18T11:22:29;100662.00;;;34.64;32.66
71559;BME280;59382;43.852;25.952;2022-08-18T11:24:55;100630.44;;;34.45;32.49
71559;BME280;59382;43.852;25.952;2022-08-18T11:27:23;100631.50;;;34.37;32.10
71559;BME280;59382;43.852;25.952;2022-08-18T11:29:51;100649.69;;;34.46;32.38
71559;BME280;59382;43.852;25.952;2022-08-18T11:32:27;100642.78;;;34.40;32.52
71559;BME280;59382;43.852;25.952;2022-08-18T11:37:30;100635.13;;;34.37;32.07
71559;BME280;59382;43.852;25.952;2022-08-18T11:40:00;100636.91;;;34.49;32.10
71559;BME280;59382;43.852;25.952;2022-08-18T11:42:35;100618.41;;;34.44;31.66
71559;BME280;59382;43.852;25.952;2022-08-18T11:45:17;100625.78;;;34.52;31.75
71559;BME280;59382;43.852;25.952;2022-08-18T11:53:20;100608.16;;;34.52;31.63
71559;BME280;59382;43.852;25.952;2022-08-18T11:56:02;100610.69;;;34.60;31.54
71559;BME280;59382;43.852;25.952;2022-08-18T11:58:39;100597.88;;;34.59;31.49
71559;BME280;59382;43.852;25.952;2022-08-18T12:01:05;100581.31;;;34.51;31.98
71559;BME280;59382;43.852;25.952;2022-08-18T12:03:43;100603.47;;;34.59;31.94
71559;BME280;59382;43.852;25.952;2022-08-18T12:06:28;100582.66;;;34.60;31.94
71559;BME280;59382;43.852;25.952;2022-08-18T12:11:30;100589.75;;;34.54;31.77
71559;BME280;59382;43.852;25.952;2022-08-18T12:14:01;100567.34;;;34.54;31.83
71559;BME280;59382;43.852;25.952;2022-08-18T12:16:42;100580.22;;;34.59;31.51
71559;BME280;59382;43.852;25.952;2022-08-18T12:19:11;100578.81;;;34.68;31.58
71559;BME280;59382;43.852;25.952;2022-08-18T12:24:31;100585.44;;;34.83;31.23
71559;BME280;59382;43.852;25.952;2022-08-18T12:26:58;100568.94;;;34.78;31.54
71559;BME280;59382;43.852;25.952;2022-08-18T12:29:25;100567.59;;;34.68;31.31
71559;BME280;59382;43.852;25.952;2022-08-18T12:31:52;100571.53;;;34.64;31.51
71559;BME280;59382;43.852;25.952;2022-08-18T12:34:21;100587.06;;;34.61;31.56
71559;BME280;59382;43.852;25.952;2022-08-18T12:36:53;100567.31;;;34.51;32.04
71559;BME280;59382;43.852;25.952;2022-08-18T12:39:19;100556.78;;;34.44;31.74
71559;BME280;59382;43.852;25.952;2022-08-18T12:41:45;100558.09;;;34.50;31.45
71559;BME280;59382;43.852;25.952;2022-08-18T12:44:11;100547.31;;;34.52;31.37
71559;BME280;59382;43.852;25.952;2022-08-18T12:46:36;100550.53;;;34.54;31.24
71559;BME280;59382;43.852;25.952;2022-08-18T12:49:05;100548.97;;;34.57;30.88
71559;BME280;59382;43.852;25.952;2022-08-18T12:51:36;100537.72;;;34.53;31.30
71559;BME280;59382;43.852;25.952;2022-08-18T12:54:02;100547.84;;;34.61;31.29
71559;BME280;59382;43.852;25.952;2022-08-18T12:56:38;100543.50;;;34.64;30.63
71559;BME280;59382;43.852;25.952;2022-08-18T12:59:06;100537.72;;;34.53;30.48
71559;BME280;59382;43.852;25.952;2022-08-18T13:01:37;100522.41;;;34.47;30.47
71559;BME280;59382;43.852;25.952;2022-08-18T13:04:04;100532.00;;;34.46;30.29
71559;BME280;59382;43.852;25.952;2022-08-18T13:06:34;100527.25;;;34.50;30.23
71559;BME280;59382;43.852;25.952;2022-08-18T13:09:00;100528.56;;;34.56;30.21
71559;BME280;59382;43.852;25.952;2022-08-18T13:11:31;100524.63;;;34.61;30.13
71559;BME280;59382;43.852;25.952;2022-08-18T13:13:56;100517.81;;;34.62;30.32
71559;BME280;59382;43.852;25.952;2022-08-18T13:16:24;100513.06;;;34.66;29.38
71559;BME280;59382;43.852;25.952;2022-08-18T13:18:51;100528.44;;;34.75;29.48
71559;BME280;59382;43.852;25.952;2022-08-18T13:21:16;100525.03;;;34.63;29.38
71559;BME280;59382;43.852;25.952;2022-08-18T13:23:43;100531.03;;;34.61;29.30
71559;BME280;59382;43.852;25.952;2022-08-18T13:26:20;100524.56;;;34.57;28.69
71559;BME280;59382;43.852;25.952;2022-08-18T13:28:48;100514.00;;;34.47;28.98
71559;BME280;59382;43.852;25.952;2022-08-18T13:31:14;100532.09;;;34.53;28.83
71559;BME280;59382;43.852;25.952;2022-08-18T13:33:40;100537.28;;;34.51;29.19
71559;BME280;59382;43.852;25.952;2022-08-18T13:36:06;100530.38;;;34.45;29.81
71559;BME280;59382;43.852;25.952;2022-08-18T13:38:32;100541.16;;;34.43;30.13
71559;BME280;59382;43.852;25.952;2022-08-18T13:41:10;100527.91;;;34.40;30.36
71559;BME280;59382;43.852;25.952;2022-08-18T13:43:40;100534.25;;;34.37;30.81
71559;BME280;59382;43.852;25.952;2022-08-18T13:46:26;100538.16;;;34.33;31.01
71559;BME280;59382;43.852;25.952;2022-08-18T13:49:21;100520.25;;;34.18;31.19
71559;BME280;59382;43.852;25.952;2022-08-18T13:51:50;100547.97;;;34.23;32.14
71559;BME280;59382;43.852;25.952;2022-08-18T13:54:22;100566.56;;;34.12;33.42
71559;BME280;59382;43.852;25.952;2022-08-18T13:56:48;100553.50;;;33.97;33.82
71559;BME280;59382;43.852;25.952;2022-08-18T13:59:15;100561.13;;;33.81;33.83
71559;BME280;59382;43.852;25.952;2022-08-18T14:01:44;100550.41;;;33.64;33.66
71559;BME280;59382;43.852;25.952;2022-08-18T14:04:17;100542.19;;;33.52;33.57
71559;BME280;59382;43.852;25.952;2022-08-18T14:06:48;100534.81;;;33.44;33.55
71559;BME280;59382;43.852;25.952;2022-08-18T14:09:14;100536.88;;;33.47;33.60
71559;BME280;59382;43.852;25.952;2022-08-18T14:11:40;100517.88;;;33.37;33.91
71559;BME280;59382;43.852;25.952;2022-08-18T14:14:06;100535.53;;;33.41;33.97
71559;BME280;59382;43.852;25.952;2022-08-18T14:16:32;100526.72;;;33.39;33.98
71559;BME280;59382;43.852;25.952;2022-08-18T14:18:58;100523.47;;;33.37;33.86
71559;BME280;59382;43.852;25.952;2022-08-18T14:21:45;100533.47;;;33.38;34.07
71559;BME280;59382;43.852;25.952;2022-08-18T14:24:31;100529.94;;;33.41;33.78
71559;BME280;59382;43.852;25.952;2022-08-18T14:27:18;100526.38;;;33.40;33.69
71559;BME280;59382;43.852;25.952;2022-08-18T14:29:46;100531.59;;;33.42;33.81
71559;BME280;59382;43.852;25.952;2022-08-18T14:32:13;100522.75;;;33.40;33.54
71559;BME280;59382;43.852;25.952;2022-08-18T14:34:42;100509.38;;;33.33;33.56
71559;BME280;59382;43.852;25.952;2022-08-18T14:37:10;100513.91;;;33.38;33.64
71559;BME280;59382;43.852;25.952;2022-08-18T14:39:35;100523.47;;;33.37;33.50
71559;BME280;59382;43.852;25.952;2022-08-18T14:42:02;100515.34;;;33.32;33.69
71559;BME280;59382;43.852;25.952;2022-08-18T14:44:28;100516.16;;;33.32;34.07
71559;BME280;59382;43.852;25.952;2022-08-18T14:46:54;100508.06;;;33.27;34.21
71559;BME280;59382;43.852;25.952;2022-08-18T14:49:25;100506.59;;;33.33;34.15
71559;BME280;59382;43.852;25.952;2022-08-18T14:51:51;100509.75;;;33.32;34.15
71559;BME280;59382;43.852;25.952;2022-08-18T14:54:17;100501.72;;;33.30;33.87
71559;BME280;59382;43.852;25.952;2022-08-18T14:56:42;100502.72;;;33.38;34.03
71559;BME280;59382;43.852;25.952;2022-08-18T14:59:08;100497.13;;;33.38;33.91
71559;BME280;59382;43.852;25.952;2022-08-18T15:01:36;100501.09;;;33.37;34.10
71559;BME280;59382;43.852;25.952;2022-08-18T15:04:02;100507.84;;;33.36;34.25
71559;BME280;59382;43.852;25.952;2022-08-18T15:06:28;100477.97;;;33.21;34.11
71559;BME280;59382;43.852;25.952;2022-08-18T15:08:54;100504.88;;;33.29;34.47
71559;BME280;59382;43.852;25.952;2022-08-18T15:11:20;100516.06;;;33.29;34.38
71559;BME280;59382;43.852;25.952;2022-08-18T15:13:45;100522.50;;;33.29;34.34
71559;BME280;59382;43.852;25.952;2022-08-18T15:16:14;100511.22;;;33.26;34.48
71559;BME280;59382;43.852;25.952;2022-08-18T15:18:44;100499.00;;;33.15;34.08
71559;BME280;59382;43.852;25.952;2022-08-18T15:21:11;100508.72;;;33.21;34.41